createdAt,value
2023-02-16T00:05:24.967Z,138.23
2023-02-16T00:11:54.239Z,135.60
2023-02-16T00:17:58.545Z,141.52
2023-02-16T00:24:00.323Z,154.30
2023-02-16T00:30:02.861Z,149.88
2023-02-16T00:36:05.048Z,149.75
2023-02-16T00:42:18.631Z,137.00
2023-02-16T00:48:21.739Z,131.40
2023-02-16T00:54:23.655Z,134.75
2023-02-16T01:00:38.015Z,139.75
2023-02-16T01:06:58.875Z,142.48
2023-02-16T01:13:02.215Z,140.80
2023-02-16T01:19:05.654Z,136.55
2023-02-16T01:25:08.878Z,159.80
2023-02-16T01:31:48.634Z,125.65
2023-02-16T01:37:52.276Z,124.90
2023-02-16T01:44:13.052Z,127.97
2023-02-16T01:50:29.029Z,121.10
2023-02-16T01:56:42.074Z,127.07
2023-02-16T02:03:15.763Z,128.77
2023-02-16T02:09:33.638Z,121.43
2023-02-16T02:15:36.680Z,114.47
2023-02-16T02:22:20.096Z,133.05
2023-02-16T02:28:47.534Z,123.43
2023-02-16T02:35:12.088Z,123.43
2023-02-16T02:42:03.118Z,139.45
2023-02-16T02:48:07.193Z,119.25
2023-02-16T02:54:36.442Z,125.65
2023-02-16T03:00:47.590Z,132.63
2023-02-16T03:06:54.235Z,124.03
2023-02-16T03:12:57.971Z,150.75
2023-02-16T03:19:20.320Z,125.60
2023-02-16T03:25:43.925Z,146.38
2023-02-16T03:31:48.032Z,148.85
2023-02-16T03:37:50.388Z,134.68
2023-02-16T03:43:52.782Z,137.68
2023-02-16T03:49:55.342Z,130.85
2023-02-16T03:55:57.738Z,125.97
2023-02-16T04:02:00.265Z,129.00
2023-02-16T04:08:03.088Z,116.10
2023-02-16T04:14:05.381Z,126.72
2023-02-16T04:20:09.827Z,140.52
2023-02-16T04:26:12.607Z,124.43
2023-02-16T04:32:15.103Z,130.48
2023-02-16T04:38:17.620Z,135.20
2023-02-16T04:44:20.023Z,131.30
2023-02-16T04:50:22.305Z,142.85
2023-02-16T04:56:25.008Z,129.75
2023-02-16T05:02:27.906Z,135.45
2023-02-16T05:08:31.052Z,130.48
2023-02-16T05:14:47.925Z,127.30
2023-02-16T05:21:08.784Z,113.20
2023-02-16T05:27:17.999Z,130.38
2023-02-16T05:33:20.749Z,136.32
2023-02-16T05:39:23.302Z,134.02
2023-02-16T05:45:25.854Z,128.50
2023-02-16T05:51:28.664Z,118.35
2023-02-16T05:57:33.836Z,128.00
2023-02-16T06:03:36.535Z,113.57
2023-02-16T06:09:39.032Z,139.90
2023-02-16T06:15:41.728Z,158.98
2023-02-16T06:21:44.767Z,151.75
2023-02-16T06:27:47.184Z,152.15
2023-02-16T06:33:49.734Z,164.43
2023-02-16T06:39:51.923Z,168.73
2023-02-16T06:45:54.162Z,159.55
2023-02-16T06:51:56.314Z,145.38
2023-02-16T06:57:58.694Z,155.68
2023-02-16T07:04:01.099Z,162.77
2023-02-16T07:10:04.046Z,154.32
2023-02-16T07:16:07.439Z,163.95
2023-02-16T07:22:09.423Z,167.73
2023-02-16T07:28:11.252Z,162.35
2023-02-16T07:34:13.079Z,154.43
2023-02-16T07:40:14.898Z,146.70
2023-02-16T07:46:16.747Z,134.60
2023-02-16T07:52:18.508Z,138.20
2023-02-16T07:58:29.358Z,122.68
2023-02-16T08:04:31.209Z,127.63
2023-02-16T08:10:32.994Z,118.70
2023-02-16T08:16:35.454Z,110.18
2023-02-16T08:22:37.609Z,111.82
2023-02-16T08:28:46.086Z,103.28
2023-02-16T08:34:48.186Z,101.45
2023-02-16T08:40:50.920Z,103.20
2023-02-16T08:46:55.559Z,91.85
2023-02-16T08:52:58.344Z,91.68
2023-02-16T08:59:00.497Z,91.95
2023-02-16T09:05:02.289Z,83.25
2023-02-16T09:11:07.025Z,79.90
2023-02-16T09:17:08.864Z,77.53
2023-02-16T09:23:12.368Z,78.40
2023-02-16T09:29:14.706Z,74.85
2023-02-16T09:35:16.515Z,73.22
2023-02-16T09:41:26.738Z,70.22
2023-02-16T09:47:34.607Z,70.63
2023-02-16T09:53:40.515Z,69.47
2023-02-16T10:00:08.038Z,66.53
2023-02-16T10:06:47.401Z,61.83
2023-02-16T10:13:19.064Z,62.53
2023-02-16T10:19:27.853Z,59.53
2023-02-16T10:25:35.151Z,60.10
2023-02-16T10:32:03.110Z,60.38
2023-02-16T10:38:33.697Z,60.00
2023-02-16T10:44:44.679Z,56.20
2023-02-16T10:50:58.789Z,57.50
2023-02-16T10:57:06.686Z,56.05
2023-02-16T11:03:12.516Z,58.67
2023-02-16T11:09:15.796Z,55.17
2023-02-16T11:15:18.798Z,52.70
2023-02-16T11:21:20.586Z,52.42
2023-02-16T11:27:24.236Z,52.35
2023-02-16T11:33:28.415Z,55.28
2023-02-16T11:39:35.415Z,52.55
2023-02-16T11:45:38.032Z,58.23
2023-02-16T11:51:43.112Z,51.22
2023-02-16T11:57:45.046Z,52.50
2023-02-16T12:04:21.122Z,48.80
2023-02-16T12:10:38.316Z,47.45
2023-02-16T12:16:52.897Z,45.03
2023-02-16T12:23:34.618Z,43.45
2023-02-16T12:29:48.081Z,41.92
2023-02-16T12:36:15.349Z,45.60
2023-02-16T12:42:55.140Z,42.07
2023-02-16T12:49:04.116Z,40.72
2023-02-16T12:55:40.678Z,38.20
2023-02-16T13:01:44.798Z,37.63
2023-02-16T13:08:45.641Z,37.90
2023-02-16T13:14:56.712Z,38.15
2023-02-16T13:21:14.530Z,38.03
2023-02-16T13:27:41.979Z,39.17
2023-02-16T13:33:47.187Z,39.08
2023-02-16T13:40:16.936Z,36.25
2023-02-16T13:46:32.833Z,40.97
2023-02-16T13:52:42.615Z,35.95
2023-02-16T13:58:44.545Z,39.83
2023-02-16T14:04:51.204Z,40.67
2023-02-16T14:10:55.976Z,42.08
2023-02-16T14:17:19.929Z,42.70
2023-02-16T14:23:34.355Z,42.28
2023-02-16T14:29:53.716Z,45.88
2023-02-16T14:35:58.500Z,38.75
2023-02-16T14:42:44.208Z,40.40
2023-02-16T14:49:16.579Z,41.05
2023-02-16T14:55:37.314Z,50.25
2023-02-16T15:01:44.580Z,39.22
2023-02-16T15:07:51.102Z,42.40
2023-02-16T15:13:53.990Z,41.72
2023-02-16T15:20:01.877Z,41.25
2023-02-16T15:26:07.417Z,39.25
2023-02-16T15:32:09.711Z,39.58
2023-02-16T15:38:26.867Z,41.95
2023-02-16T15:44:39.593Z,45.25
2023-02-16T15:50:44.650Z,43.85
2023-02-16T15:56:53.222Z,46.97
2023-02-16T16:02:58.442Z,41.97
2023-02-16T16:09:02.809Z,43.95
2023-02-16T16:15:07.844Z,44.05
2023-02-16T16:21:34.185Z,44.65
2023-02-16T16:27:38.064Z,42.92
2023-02-16T16:34:06.036Z,47.88
2023-02-16T16:40:23.524Z,48.87
2023-02-16T16:46:33.257Z,52.83
2023-02-16T16:52:37.031Z,50.92
2023-02-16T16:58:38.838Z,59.53
2023-02-16T17:04:40.596Z,55.08
2023-02-16T17:10:42.835Z,52.72
2023-02-16T17:16:47.704Z,55.17
2023-02-16T17:22:49.883Z,57.58
2023-02-16T17:28:51.649Z,53.17
2023-02-16T17:34:53.413Z,59.90
2023-02-16T17:40:56.283Z,56.28
2023-02-16T17:46:58.205Z,56.78
2023-02-16T17:53:00.467Z,58.67
2023-02-16T17:59:03.437Z,60.40
2023-02-16T18:05:05.526Z,59.33
2023-02-16T18:11:07.428Z,61.97
2023-02-16T18:17:30.811Z,58.50
2023-02-16T18:23:47.457Z,61.65
2023-02-16T18:29:53.786Z,57.92
2023-02-16T18:35:57.504Z,61.65
2023-02-16T18:41:59.273Z,56.42
2023-02-16T18:48:01.038Z,57.97
2023-02-16T18:54:02.876Z,59.47
2023-02-16T19:00:06.291Z,60.03
2023-02-16T19:06:08.499Z,56.65
2023-02-16T19:12:10.370Z,64.00
2023-02-16T19:18:12.189Z,59.97
2023-02-16T19:24:13.975Z,58.13
2023-02-16T19:30:15.997Z,60.08
2023-02-16T19:36:19.017Z,57.60
2023-02-16T19:42:21.467Z,56.72
2023-02-16T19:48:23.271Z,59.65
2023-02-16T19:54:25.188Z,63.25
2023-02-16T20:00:27.033Z,57.25
2023-02-16T20:06:34.557Z,64.22
2023-02-16T20:12:36.617Z,63.40
2023-02-16T20:18:39.521Z,64.13
2023-02-16T20:24:41.777Z,59.30
2023-02-16T20:30:44.209Z,56.95
2023-02-16T20:36:46.625Z,58.53
2023-02-16T20:42:49.285Z,61.95
2023-02-16T20:48:53.242Z,55.78
2023-02-16T20:54:57.480Z,55.45
2023-02-16T21:01:03.379Z,59.25
2023-02-16T21:07:06.884Z,56.88
2023-02-16T21:13:10.054Z,62.28
2023-02-16T21:19:22.906Z,55.97
2023-02-16T21:25:27.394Z,51.20
2023-02-16T21:31:30.192Z,57.22
2023-02-16T21:37:35.769Z,56.10
2023-02-16T21:43:39.250Z,61.35
2023-02-16T21:49:48.127Z,59.25
2023-02-16T21:56:09.921Z,57.17
2023-02-16T22:02:11.738Z,68.28
2023-02-16T22:08:14.506Z,61.72
2023-02-16T22:14:16.438Z,62.08
2023-02-16T22:20:18.829Z,59.83
2023-02-16T22:26:29.639Z,63.17
2023-02-16T22:32:31.493Z,56.13
2023-02-16T22:38:33.457Z,53.42
2023-02-16T22:44:35.283Z,57.60
2023-02-16T22:50:37.068Z,59.85
2023-02-16T22:56:38.829Z,52.13
2023-02-16T23:02:40.853Z,58.28
2023-02-16T23:08:44.203Z,56.75
2023-02-16T23:14:46.036Z,55.03
2023-02-16T23:21:21.224Z,51.80
2023-02-16T23:27:23.486Z,54.00
2023-02-16T23:33:25.394Z,57.72
2023-02-16T23:39:27.185Z,53.53
2023-02-16T23:45:29.124Z,53.65
2023-02-16T23:51:32.611Z,59.20
2023-02-16T23:57:37.944Z,55.90
